Hovedside
METAR-TAF:

METAR-TAF

Lufthavner :

Tsjita, Russland

breddegrad: 52-05N, lengdegrad: 113-29E, høyde over havet: 685 m

Gjeldene værobservasjon

Denne rapporten ble laget for 17 minutter siden, klokken 15:30 UTC
Vind 6 kt fra Nord-nordøst
Temperatur -16°C
Luftfuktighet 60%
Trykk 1013 hPa
Sikt 10 km eller mer

METAR: UIAA 201530Z AUTO 02003MPS 9999 NCD M16/M22 Q1013 RMK QFE701/0935

Tid: 00:47 (15:47 UTC)

Varsel

Denne rapporten ble laget for 1 time og 47 minutter siden, klokken 14:00 UTC
Varsel gyldig fra 20. klokken 15 UTC til 21. klokken 15 UTC
Vind 6 kt fra Øst-nordøst
Sikt 10 km eller mer

TAF: UIAA 201400Z 2015/2115 06003MPS 9999 NSC

Værobservasjoner og værvarsel for over 4000 flyplasser (METAR- og TAF-rapporter).

Tilgjengelige stasjoner er representert av de røde og gule prikkene på kartet.

Hold musepekeren over prikken for å se navnet på stasjonen.

Klikk så for å se værobservasjoner og -varsler.

For å forandre kartet kan du klikke på den grønne knappen med svart kryss for å zoome inn, på den grønne knappen med strek for å zoome ut, eller på de grønne pilene for å se tilstøtende kart.


METAR-TAF: